This is the latest recevied weather packets stored in our database for station/object N7WLC. If no packets are shown the sender has not sent any weather packets the latest 10 day(s).
| Time | Temp. | Humidity | Pressure | Rain* | Wind** | Luminosity | Snow |
|---|---|---|---|---|---|---|---|
| 1777502903 | 23.33° C | 36% | 1014.7 hPa | 0 mm | 0.45 m/s, 240° | - | - |
| 1777501102 | 24.44° C | 34% | 1015.1 hPa | 0 mm | 0.45 m/s, 259° | - | - |
| 1777499303 | 24.44° C | 36% | 1015.9 hPa | 0 mm | 0 m/s | - | - |
| 1777497503 | 24.44° C | 36% | 1015.9 hPa | 0 mm | 0 m/s | - | - |
| 1777495703 | 24.44° C | 36% | 1015.9 hPa | 0 mm | 0 m/s | - | - |
| 1777488034 | 24.44° C | 35% | 1016 hPa | 0 mm | 0.89 m/s, 258° | - | - |
| 1777486233 | 24.44° C | 35% | 1016.2 hPa | 0 mm | 0 m/s | - | - |
| 1777484434 | 23.33° C | 35% | 1016.5 hPa | 0 mm | 1.34 m/s, 287° | - | - |
| 1777482634 | 22.78° C | 36% | 1016.6 hPa | 0 mm | 0.45 m/s, 231° | - | - |
| 1777480833 | 21.67° C | 40% | 1016.6 hPa | 0 mm | 0.45 m/s, 212° | - | - |
| 1777479034 | 20° C | 42% | 1016.7 hPa | 0 mm | 0 m/s | - | - |
| 1777477234 | 18.89° C | 47% | 1017.3 hPa | 0 mm | 0 m/s | - | - |
| 1777475433 | 17.22° C | 51% | 1017.2 hPa | 0 mm | 0.45 m/s, 206° | - | - |
| 1777473634 | 14.44° C | 59% | 1017.2 hPa | 0 mm | 0 m/s | - | - |
| 1777471833 | 11.11° C | 68% | 1017.4 hPa | 0 mm | 0 m/s | - | - |
| 1777470033 | 8.89° C | 79% | 1017.3 hPa | 0 mm | 0 m/s | - | - |
| 1777468234 | 8.33° C | 81% | 1017.5 hPa | 0 mm | 0 m/s | - | - |
| 1777466433 | 8.33° C | 80% | 1017.3 hPa | 0 mm | 0 m/s | - | - |
| 1777464634 | 8.89° C | 76% | 1017.3 hPa | 0 mm | 0 m/s | - | - |
| 1777462834 | 10° C | 73% | 1016.8 hPa | 0 mm | 0 m/s | - | - |
| 1777461033 | 10° C | 72% | 1016.5 hPa | 0 mm | 0 m/s | - | - |
| 1777459234 | 10° C | 72% | 1016.5 hPa | 0 mm | 0 m/s | - | - |
| 1777457433 | 10° C | 72% | 1016.5 hPa | 0 mm | 0 m/s | - | - |
| 1777455633 | 10° C | 71% | 1016.3 hPa | 0 mm | 0 m/s | - | - |
| 1777453834 | 10.56° C | 69% | 1016.5 hPa | 0 mm | 0 m/s | - | - |
* Rain latest hour (hover to see other rain measurements)
** Current wind speed in m/s (hover to see current wind gust speed)